sensor_id;sensor_type;location;lat;lon;timestamp;P1;durP1;ratioP1;P2;durP2;ratioP2
20093;SDS011;10206;48.012;10.030;2023-03-01T00:01:30;32.83;;;17.57;;
20093;SDS011;10206;48.012;10.030;2023-03-01T00:03:57;33.03;;;17.50;;
20093;SDS011;10206;48.012;10.030;2023-03-01T00:06:24;32.60;;;17.87;;
20093;SDS011;10206;48.012;10.030;2023-03-01T00:08:51;32.03;;;17.73;;
20093;SDS011;10206;48.012;10.030;2023-03-01T00:11:21;33.20;;;18.63;;
20093;SDS011;10206;48.012;10.030;2023-03-01T00:13:51;29.67;;;17.60;;
20093;SDS011;10206;48.012;10.030;2023-03-01T00:16:19;33.40;;;18.57;;
20093;SDS011;10206;48.012;10.030;2023-03-01T00:18:47;31.27;;;17.30;;
20093;SDS011;10206;48.012;10.030;2023-03-01T00:21:13;36.37;;;18.60;;
20093;SDS011;10206;48.012;10.030;2023-03-01T00:23:40;31.93;;;18.60;;
20093;SDS011;10206;48.012;10.030;2023-03-01T00:26:07;31.57;;;18.10;;
20093;SDS011;10206;48.012;10.030;2023-03-01T00:28:35;30.80;;;17.90;;
20093;SDS011;10206;48.012;10.030;2023-03-01T00:31:11;32.80;;;18.17;;
20093;SDS011;10206;48.012;10.030;2023-03-01T00:33:40;33.37;;;18.60;;
20093;SDS011;10206;48.012;10.030;2023-03-01T00:36:06;32.73;;;18.13;;
20093;SDS011;10206;48.012;10.030;2023-03-01T00:38:37;31.20;;;17.80;;
20093;SDS011;10206;48.012;10.030;2023-03-01T00:41:04;32.40;;;18.60;;
20093;SDS011;10206;48.012;10.030;2023-03-01T00:43:31;32.20;;;17.80;;
20093;SDS011;10206;48.012;10.030;2023-03-01T00:46:01;32.53;;;18.80;;
20093;SDS011;10206;48.012;10.030;2023-03-01T00:48:33;31.47;;;18.43;;
20093;SDS011;10206;48.012;10.030;2023-03-01T00:53:32;33.13;;;19.30;;
20093;SDS011;10206;48.012;10.030;2023-03-01T00:55:59;36.50;;;18.77;;
20093;SDS011;10206;48.012;10.030;2023-03-01T00:58:25;35.90;;;18.20;;
20093;SDS011;10206;48.012;10.030;2023-03-01T01:00:52;34.57;;;18.20;;
20093;SDS011;10206;48.012;10.030;2023-03-01T01:03:18;32.50;;;18.97;;
20093;SDS011;10206;48.012;10.030;2023-03-01T01:05:44;35.57;;;19.47;;
20093;SDS011;10206;48.012;10.030;2023-03-01T01:08:11;34.03;;;18.87;;
20093;SDS011;10206;48.012;10.030;2023-03-01T01:10:37;35.27;;;19.50;;
20093;SDS011;10206;48.012;10.030;2023-03-01T01:13:03;31.93;;;18.87;;
20093;SDS011;10206;48.012;10.030;2023-03-01T01:15:33;31.30;;;18.03;;
20093;SDS011;10206;48.012;10.030;2023-03-01T01:17:59;31.87;;;19.10;;
20093;SDS011;10206;48.012;10.030;2023-03-01T01:20:26;34.57;;;19.73;;
20093;SDS011;10206;48.012;10.030;2023-03-01T01:22:52;35.57;;;19.40;;
20093;SDS011;10206;48.012;10.030;2023-03-01T01:25:18;36.03;;;20.07;;
20093;SDS011;10206;48.012;10.030;2023-03-01T01:27:45;34.57;;;19.53;;
20093;SDS011;10206;48.012;10.030;2023-03-01T01:30:11;36.23;;;20.17;;
20093;SDS011;10206;48.012;10.030;2023-03-01T01:32:38;34.57;;;19.63;;
20093;SDS011;10206;48.012;10.030;2023-03-01T01:35:04;34.03;;;19.33;;
20093;SDS011;10206;48.012;10.030;2023-03-01T01:37:30;35.70;;;19.80;;
20093;SDS011;10206;48.012;10.030;2023-03-01T01:40:00;36.43;;;20.03;;
20093;SDS011;10206;48.012;10.030;2023-03-01T01:42:29;33.27;;;19.50;;
20093;SDS011;10206;48.012;10.030;2023-03-01T01:47:49;35.63;;;19.90;;
20093;SDS011;10206;48.012;10.030;2023-03-01T01:50:17;32.80;;;19.20;;
20093;SDS011;10206;48.012;10.030;2023-03-01T01:52:44;34.60;;;19.63;;
20093;SDS011;10206;48.012;10.030;2023-03-01T01:55:17;36.43;;;20.27;;
20093;SDS011;10206;48.012;10.030;2023-03-01T01:57:53;32.67;;;18.90;;
20093;SDS011;10206;48.012;10.030;2023-03-01T02:00:24;32.90;;;19.37;;
20093;SDS011;10206;48.012;10.030;2023-03-01T02:02:59;35.57;;;20.03;;
20093;SDS011;10206;48.012;10.030;2023-03-01T02:05:43;35.57;;;20.27;;
20093;SDS011;10206;48.012;10.030;2023-03-01T02:08:11;37.93;;;20.07;;
20093;SDS011;10206;48.012;10.030;2023-03-01T02:10:39;36.00;;;20.77;;
20093;SDS011;10206;48.012;10.030;2023-03-01T02:13:06;39.63;;;21.03;;
20093;SDS011;10206;48.012;10.030;2023-03-01T02:15:34;38.50;;;20.77;;
20093;SDS011;10206;48.012;10.030;2023-03-01T02:18:03;32.13;;;19.43;;
20093;SDS011;10206;48.012;10.030;2023-03-01T02:23:03;37.00;;;21.13;;
20093;SDS011;10206;48.012;10.030;2023-03-01T02:28:22;36.63;;;20.10;;
20093;SDS011;10206;48.012;10.030;2023-03-01T02:30:59;36.07;;;19.97;;
20093;SDS011;10206;48.012;10.030;2023-03-01T02:33:46;38.97;;;20.77;;
20093;SDS011;10206;48.012;10.030;2023-03-01T02:36:17;36.07;;;20.20;;
20093;SDS011;10206;48.012;10.030;2023-03-01T02:38:47;37.53;;;21.17;;
20093;SDS011;10206;48.012;10.030;2023-03-01T02:41:15;39.00;;;21.20;;
20093;SDS011;10206;48.012;10.030;2023-03-01T02:43:42;39.00;;;21.13;;
20093;SDS011;10206;48.012;10.030;2023-03-01T02:46:22;39.77;;;21.67;;
20093;SDS011;10206;48.012;10.030;2023-03-01T02:48:51;35.50;;;20.63;;
20093;SDS011;10206;48.012;10.030;2023-03-01T02:51:22;37.17;;;20.10;;
20093;SDS011;10206;48.012;10.030;2023-03-01T02:56:35;35.00;;;19.27;;
20093;SDS011;10206;48.012;10.030;2023-03-01T02:59:01;38.23;;;20.43;;
20093;SDS011;10206;48.012;10.030;2023-03-01T03:01:29;36.70;;;20.17;;
20093;SDS011;10206;48.012;10.030;2023-03-01T03:04:12;37.53;;;20.73;;
20093;SDS011;10206;48.012;10.030;2023-03-01T03:06:46;36.97;;;21.33;;
20093;SDS011;10206;48.012;10.030;2023-03-01T03:09:14;38.03;;;20.43;;
20093;SDS011;10206;48.012;10.030;2023-03-01T03:11:41;39.37;;;21.63;;
20093;SDS011;10206;48.012;10.030;2023-03-01T03:14:08;38.00;;;21.93;;
20093;SDS011;10206;48.012;10.030;2023-03-01T03:16:45;38.23;;;20.90;;
20093;SDS011;10206;48.012;10.030;2023-03-01T03:19:12;35.87;;;20.10;;
20093;SDS011;10206;48.012;10.030;2023-03-01T03:21:39;38.47;;;21.17;;
20093;SDS011;10206;48.012;10.030;2023-03-01T03:24:05;40.50;;;20.20;;
20093;SDS011;10206;48.012;10.030;2023-03-01T03:26:31;39.00;;;22.10;;
20093;SDS011;10206;48.012;10.030;2023-03-01T03:28:57;37.57;;;20.63;;
20093;SDS011;10206;48.012;10.030;2023-03-01T03:31:23;37.27;;;21.13;;
20093;SDS011;10206;48.012;10.030;2023-03-01T03:33:50;40.03;;;21.37;;
20093;SDS011;10206;48.012;10.030;2023-03-01T03:36:16;44.03;;;21.53;;
20093;SDS011;10206;48.012;10.030;2023-03-01T03:38:44;37.33;;;20.87;;
20093;SDS011;10206;48.012;10.030;2023-03-01T03:41:10;39.17;;;21.27;;
20093;SDS011;10206;48.012;10.030;2023-03-01T03:43:38;37.67;;;21.10;;
20093;SDS011;10206;48.012;10.030;2023-03-01T03:46:05;34.13;;;20.07;;
20093;SDS011;10206;48.012;10.030;2023-03-01T03:48:36;38.23;;;20.37;;
20093;SDS011;10206;48.012;10.030;2023-03-01T03:51:04;36.60;;;20.53;;
20093;SDS011;10206;48.012;10.030;2023-03-01T03:53:30;37.83;;;20.60;;
20093;SDS011;10206;48.012;10.030;2023-03-01T03:55:57;39.10;;;22.17;;
20093;SDS011;10206;48.012;10.030;2023-03-01T03:58:24;39.17;;;20.93;;
20093;SDS011;10206;48.012;10.030;2023-03-01T04:00:51;38.17;;;21.53;;
20093;SDS011;10206;48.012;10.030;2023-03-01T04:03:21;37.73;;;20.50;;
20093;SDS011;10206;48.012;10.030;2023-03-01T04:05:48;40.03;;;21.90;;
20093;SDS011;10206;48.012;10.030;2023-03-01T04:08:18;38.07;;;21.03;;
20093;SDS011;10206;48.012;10.030;2023-03-01T04:10:47;40.40;;;22.10;;
20093;SDS011;10206;48.012;10.030;2023-03-01T04:13:16;40.43;;;22.17;;
20093;SDS011;10206;48.012;10.030;2023-03-01T04:15:45;39.77;;;20.70;;
20093;SDS011;10206;48.012;10.030;2023-03-01T04:18:14;38.80;;;21.20;;
20093;SDS011;10206;48.012;10.030;2023-03-01T04:20:41;39.07;;;21.07;;
20093;SDS011;10206;48.012;10.030;2023-03-01T04:23:12;35.10;;;20.13;;
20093;SDS011;10206;48.012;10.030;2023-03-01T04:28:23;38.73;;;20.93;;
20093;SDS011;10206;48.012;10.030;2023-03-01T04:30:51;41.57;;;21.23;;
20093;SDS011;10206;48.012;10.030;2023-03-01T04:33:19;38.87;;;20.97;;
20093;SDS011;10206;48.012;10.030;2023-03-01T04:35:45;38.57;;;20.50;;
20093;SDS011;10206;48.012;10.030;2023-03-01T04:38:14;37.27;;;21.60;;
20093;SDS011;10206;48.012;10.030;2023-03-01T04:40:43;37.60;;;20.70;;
20093;SDS011;10206;48.012;10.030;2023-03-01T04:43:10;38.87;;;21.30;;
20093;SDS011;10206;48.012;10.030;2023-03-01T04:45:39;39.40;;;21.77;;
20093;SDS011;10206;48.012;10.030;2023-03-01T04:48:05;35.50;;;20.30;;
20093;SDS011;10206;48.012;10.030;2023-03-01T04:50:31;38.40;;;21.77;;
20093;SDS011;10206;48.012;10.030;2023-03-01T04:52:58;40.03;;;22.93;;
20093;SDS011;10206;48.012;10.030;2023-03-01T04:55:25;39.47;;;21.43;;
20093;SDS011;10206;48.012;10.030;2023-03-01T04:57:52;37.80;;;20.60;;
20093;SDS011;10206;48.012;10.030;2023-03-01T05:00:19;38.20;;;21.17;;
20093;SDS011;10206;48.012;10.030;2023-03-01T05:02:55;41.13;;;22.03;;
20093;SDS011;10206;48.012;10.030;2023-03-01T05:05:31;37.77;;;22.07;;
20093;SDS011;10206;48.012;10.030;2023-03-01T05:08:01;36.57;;;19.73;;
20093;SDS011;10206;48.012;10.030;2023-03-01T05:10:30;38.83;;;20.87;;
20093;SDS011;10206;48.012;10.030;2023-03-01T05:12:58;36.73;;;21.30;;
20093;SDS011;10206;48.012;10.030;2023-03-01T05:15:28;40.20;;;22.17;;
20093;SDS011;10206;48.012;10.030;2023-03-01T05:17:56;40.43;;;22.57;;
20093;SDS011;10206;48.012;10.030;2023-03-01T05:20:24;38.90;;;21.73;;
20093;SDS011;10206;48.012;10.030;2023-03-01T05:22:52;41.47;;;23.00;;
20093;SDS011;10206;48.012;10.030;2023-03-01T05:25:23;44.20;;;23.77;;
20093;SDS011;10206;48.012;10.030;2023-03-01T05:27:50;38.93;;;22.40;;
20093;SDS011;10206;48.012;10.030;2023-03-01T05:30:16;42.43;;;23.03;;
20093;SDS011;10206;48.012;10.030;2023-03-01T05:32:46;39.57;;;21.77;;
20093;SDS011;10206;48.012;10.030;2023-03-01T05:35:15;44.20;;;23.10;;
20093;SDS011;10206;48.012;10.030;2023-03-01T05:37:43;40.67;;;23.83;;
20093;SDS011;10206;48.012;10.030;2023-03-01T05:40:15;41.97;;;22.63;;
20093;SDS011;10206;48.012;10.030;2023-03-01T05:42:43;40.17;;;21.73;;
20093;SDS011;10206;48.012;10.030;2023-03-01T05:45:11;42.27;;;22.00;;
20093;SDS011;10206;48.012;10.030;2023-03-01T05:47:38;43.23;;;22.77;;
20093;SDS011;10206;48.012;10.030;2023-03-01T05:50:08;39.50;;;20.93;;
20093;SDS011;10206;48.012;10.030;2023-03-01T05:53:05;42.33;;;22.07;;
20093;SDS011;10206;48.012;10.030;2023-03-01T05:55:34;41.57;;;21.77;;
20093;SDS011;10206;48.012;10.030;2023-03-01T05:58:02;42.70;;;23.23;;
20093;SDS011;10206;48.012;10.030;2023-03-01T06:00:30;41.57;;;23.57;;
20093;SDS011;10206;48.012;10.030;2023-03-01T06:02:56;42.03;;;24.33;;
20093;SDS011;10206;48.012;10.030;2023-03-01T06:05:23;44.13;;;21.90;;
20093;SDS011;10206;48.012;10.030;2023-03-01T06:07:50;44.27;;;22.83;;
20093;SDS011;10206;48.012;10.030;2023-03-01T06:10:17;39.50;;;22.00;;
20093;SDS011;10206;48.012;10.030;2023-03-01T06:12:44;42.53;;;23.43;;
20093;SDS011;10206;48.012;10.030;2023-03-01T06:15:11;41.40;;;24.00;;
20093;SDS011;10206;48.012;10.030;2023-03-01T06:17:39;42.03;;;22.33;;
20093;SDS011;10206;48.012;10.030;2023-03-01T06:20:08;42.43;;;22.60;;
20093;SDS011;10206;48.012;10.030;2023-03-01T06:22:46;40.60;;;21.90;;
20093;SDS011;10206;48.012;10.030;2023-03-01T06:25:14;39.87;;;22.67;;
20093;SDS011;10206;48.012;10.030;2023-03-01T06:27:42;40.50;;;21.50;;
20093;SDS011;10206;48.012;10.030;2023-03-01T06:30:09;36.87;;;21.43;;
20093;SDS011;10206;48.012;10.030;2023-03-01T06:32:37;40.23;;;21.73;;
20093;SDS011;10206;48.012;10.030;2023-03-01T06:35:07;42.97;;;22.30;;
20093;SDS011;10206;48.012;10.030;2023-03-01T06:37:34;38.73;;;20.63;;
20093;SDS011;10206;48.012;10.030;2023-03-01T06:40:02;38.50;;;21.60;;
20093;SDS011;10206;48.012;10.030;2023-03-01T06:42:33;40.00;;;22.00;;
20093;SDS011;10206;48.012;10.030;2023-03-01T06:45:04;35.50;;;21.07;;
20093;SDS011;10206;48.012;10.030;2023-03-01T06:47:31;39.83;;;21.17;;
20093;SDS011;10206;48.012;10.030;2023-03-01T06:50:01;40.27;;;21.60;;
20093;SDS011;10206;48.012;10.030;2023-03-01T06:52:27;38.27;;;20.97;;
20093;SDS011;10206;48.012;10.030;2023-03-01T06:54:54;41.47;;;21.70;;
20093;SDS011;10206;48.012;10.030;2023-03-01T06:57:20;43.13;;;22.60;;
20093;SDS011;10206;48.012;10.030;2023-03-01T06:59:47;37.57;;;20.90;;
20093;SDS011;10206;48.012;10.030;2023-03-01T07:02:13;35.50;;;20.47;;
20093;SDS011;10206;48.012;10.030;2023-03-01T07:04:40;38.73;;;21.77;;
20093;SDS011;10206;48.012;10.030;2023-03-01T07:07:06;39.63;;;21.37;;
20093;SDS011;10206;48.012;10.030;2023-03-01T07:09:33;38.10;;;21.80;;
20093;SDS011;10206;48.012;10.030;2023-03-01T07:11:59;37.73;;;20.83;;
20093;SDS011;10206;48.012;10.030;2023-03-01T07:14:25;38.00;;;20.23;;
20093;SDS011;10206;48.012;10.030;2023-03-01T07:16:52;40.27;;;22.23;;
20093;SDS011;10206;48.012;10.030;2023-03-01T07:19:19;39.20;;;21.47;;
20093;SDS011;10206;48.012;10.030;2023-03-01T07:21:46;39.10;;;22.17;;
20093;SDS011;10206;48.012;10.030;2023-03-01T07:24:12;42.23;;;22.77;;
20093;SDS011;10206;48.012;10.030;2023-03-01T07:26:38;40.70;;;21.33;;
20093;SDS011;10206;48.012;10.030;2023-03-01T07:29:05;41.60;;;21.73;;
20093;SDS011;10206;48.012;10.030;2023-03-01T07:31:32;37.60;;;22.07;;
20093;SDS011;10206;48.012;10.030;2023-03-01T07:33:59;39.30;;;21.43;;
20093;SDS011;10206;48.012;10.030;2023-03-01T07:36:25;42.03;;;22.00;;
20093;SDS011;10206;48.012;10.030;2023-03-01T07:38:51;41.63;;;21.83;;
20093;SDS011;10206;48.012;10.030;2023-03-01T07:41:18;40.97;;;21.40;;
20093;SDS011;10206;48.012;10.030;2023-03-01T07:43:44;38.70;;;21.23;;
20093;SDS011;10206;48.012;10.030;2023-03-01T07:46:10;40.87;;;21.63;;
20093;SDS011;10206;48.012;10.030;2023-03-01T07:48:36;43.47;;;22.40;;
20093;SDS011;10206;48.012;10.030;2023-03-01T07:51:03;38.50;;;22.23;;
20093;SDS011;10206;48.012;10.030;2023-03-01T07:53:30;38.17;;;21.10;;
20093;SDS011;10206;48.012;10.030;2023-03-01T07:56:16;37.10;;;21.43;;
20093;SDS011;10206;48.012;10.030;2023-03-01T07:58:43;40.87;;;21.20;;
20093;SDS011;10206;48.012;10.030;2023-03-01T08:01:11;41.23;;;22.43;;
20093;SDS011;10206;48.012;10.030;2023-03-01T08:03:39;42.93;;;23.37;;
20093;SDS011;10206;48.012;10.030;2023-03-01T08:06:06;38.37;;;22.03;;
20093;SDS011;10206;48.012;10.030;2023-03-01T08:08:34;37.80;;;21.00;;
20093;SDS011;10206;48.012;10.030;2023-03-01T08:11:01;38.80;;;21.20;;
20093;SDS011;10206;48.012;10.030;2023-03-01T08:13:29;39.20;;;19.13;;
20093;SDS011;10206;48.012;10.030;2023-03-01T08:16:00;41.67;;;21.43;;
20093;SDS011;10206;48.012;10.030;2023-03-01T08:18:28;38.10;;;21.60;;
20093;SDS011;10206;48.012;10.030;2023-03-01T08:20:54;35.33;;;20.03;;
20093;SDS011;10206;48.012;10.030;2023-03-01T08:23:20;37.93;;;20.73;;
20093;SDS011;10206;48.012;10.030;2023-03-01T08:25:46;38.40;;;20.93;;
20093;SDS011;10206;48.012;10.030;2023-03-01T08:28:12;44.07;;;21.93;;
20093;SDS011;10206;48.012;10.030;2023-03-01T08:30:38;43.77;;;22.93;;
20093;SDS011;10206;48.012;10.030;2023-03-01T08:33:04;47.00;;;22.97;;
20093;SDS011;10206;48.012;10.030;2023-03-01T08:35:30;41.17;;;21.47;;
20093;SDS011;10206;48.012;10.030;2023-03-01T08:37:56;45.07;;;23.30;;
20093;SDS011;10206;48.012;10.030;2023-03-01T08:40:23;41.30;;;22.50;;
20093;SDS011;10206;48.012;10.030;2023-03-01T08:42:49;40.53;;;23.00;;
20093;SDS011;10206;48.012;10.030;2023-03-01T08:45:15;39.77;;;21.50;;
20093;SDS011;10206;48.012;10.030;2023-03-01T08:47:43;39.93;;;22.63;;
20093;SDS011;10206;48.012;10.030;2023-03-01T08:50:10;37.90;;;20.93;;
20093;SDS011;10206;48.012;10.030;2023-03-01T08:52:36;40.07;;;21.33;;
20093;SDS011;10206;48.012;10.030;2023-03-01T08:55:02;35.70;;;20.00;;
20093;SDS011;10206;48.012;10.030;2023-03-01T08:57:29;37.90;;;22.40;;
20093;SDS011;10206;48.012;10.030;2023-03-01T08:59:55;43.03;;;22.37;;
20093;SDS011;10206;48.012;10.030;2023-03-01T09:02:21;36.73;;;21.53;;
20093;SDS011;10206;48.012;10.030;2023-03-01T09:04:47;39.60;;;22.13;;
20093;SDS011;10206;48.012;10.030;2023-03-01T09:07:13;37.17;;;21.23;;
20093;SDS011;10206;48.012;10.030;2023-03-01T09:09:39;38.50;;;21.03;;
20093;SDS011;10206;48.012;10.030;2023-03-01T09:12:05;42.47;;;22.53;;
20093;SDS011;10206;48.012;10.030;2023-03-01T09:14:32;48.57;;;24.90;;
20093;SDS011;10206;48.012;10.030;2023-03-01T09:16:58;44.60;;;24.57;;
20093;SDS011;10206;48.012;10.030;2023-03-01T09:19:27;36.90;;;20.40;;
20093;SDS011;10206;48.012;10.030;2023-03-01T09:21:54;40.33;;;21.80;;
20093;SDS011;10206;48.012;10.030;2023-03-01T09:24:21;42.13;;;20.53;;
20093;SDS011;10206;48.012;10.030;2023-03-01T09:26:48;38.93;;;21.97;;
20093;SDS011;10206;48.012;10.030;2023-03-01T09:29:15;37.70;;;21.77;;
20093;SDS011;10206;48.012;10.030;2023-03-01T09:31:42;39.47;;;21.30;;
20093;SDS011;10206;48.012;10.030;2023-03-01T09:34:08;39.83;;;21.30;;
20093;SDS011;10206;48.012;10.030;2023-03-01T09:36:35;36.57;;;20.63;;
20093;SDS011;10206;48.012;10.030;2023-03-01T09:39:02;40.93;;;21.97;;
20093;SDS011;10206;48.012;10.030;2023-03-01T09:41:49;38.00;;;21.83;;
20093;SDS011;10206;48.012;10.030;2023-03-01T09:46:59;42.93;;;23.37;;
20093;SDS011;10206;48.012;10.030;2023-03-01T09:49:28;45.67;;;22.40;;
20093;SDS011;10206;48.012;10.030;2023-03-01T09:52:14;49.23;;;24.93;;
20093;SDS011;10206;48.012;10.030;2023-03-01T09:54:41;41.77;;;21.23;;
20093;SDS011;10206;48.012;10.030;2023-03-01T10:10:44;65.67;;;34.30;;
20093;SDS011;10206;48.012;10.030;2023-03-01T10:13:15;41.13;;;22.73;;
20093;SDS011;10206;48.012;10.030;2023-03-01T10:15:56;49.13;;;26.43;;
20093;SDS011;10206;48.012;10.030;2023-03-01T10:18:30;51.07;;;25.47;;
20093;SDS011;10206;48.012;10.030;2023-03-01T10:20:59;49.50;;;22.73;;
20093;SDS011;10206;48.012;10.030;2023-03-01T10:23:38;46.50;;;23.70;;
20093;SDS011;10206;48.012;10.030;2023-03-01T10:29:01;50.37;;;24.37;;
20093;SDS011;10206;48.012;10.030;2023-03-01T10:31:41;77.33;;;35.37;;
20093;SDS011;10206;48.012;10.030;2023-03-01T10:34:12;55.97;;;26.57;;
20093;SDS011;10206;48.012;10.030;2023-03-01T10:36:41;49.53;;;24.67;;
20093;SDS011;10206;48.012;10.030;2023-03-01T10:39:12;44.90;;;23.77;;
20093;SDS011;10206;48.012;10.030;2023-03-01T10:41:57;50.97;;;25.57;;
20093;SDS011;10206;48.012;10.030;2023-03-01T10:44:37;42.00;;;22.07;;
20093;SDS011;10206;48.012;10.030;2023-03-01T10:47:05;51.10;;;25.80;;
20093;SDS011;10206;48.012;10.030;2023-03-01T10:49:38;42.10;;;23.17;;
20093;SDS011;10206;48.012;10.030;2023-03-01T10:52:20;52.40;;;26.03;;
20093;SDS011;10206;48.012;10.030;2023-03-01T10:55:02;49.10;;;25.03;;
20093;SDS011;10206;48.012;10.030;2023-03-01T10:57:30;42.53;;;22.73;;
20093;SDS011;10206;48.012;10.030;2023-03-01T11:00:15;42.53;;;22.87;;
20093;SDS011;10206;48.012;10.030;2023-03-01T11:05:25;46.50;;;23.07;;
20093;SDS011;10206;48.012;10.030;2023-03-01T11:08:00;42.50;;;21.43;;
20093;SDS011;10206;48.012;10.030;2023-03-01T11:16:28;41.17;;;22.90;;
20093;SDS011;10206;48.012;10.030;2023-03-01T11:21:34;41.80;;;21.47;;
20093;SDS011;10206;48.012;10.030;2023-03-01T11:24:06;41.10;;;21.40;;
20093;SDS011;10206;48.012;10.030;2023-03-01T11:26:38;42.37;;;22.30;;
20093;SDS011;10206;48.012;10.030;2023-03-01T11:29:12;39.00;;;22.17;;
20093;SDS011;10206;48.012;10.030;2023-03-01T11:31:47;40.43;;;21.80;;
20093;SDS011;10206;48.012;10.030;2023-03-01T11:34:16;41.83;;;21.83;;
20093;SDS011;10206;48.012;10.030;2023-03-01T11:36:55;38.93;;;22.00;;
20093;SDS011;10206;48.012;10.030;2023-03-01T11:39:32;41.53;;;21.77;;
20093;SDS011;10206;48.012;10.030;2023-03-01T11:42:06;42.43;;;22.60;;
20093;SDS011;10206;48.012;10.030;2023-03-01T11:44:51;43.70;;;22.33;;
20093;SDS011;10206;48.012;10.030;2023-03-01T11:47:23;43.97;;;21.47;;
20093;SDS011;10206;48.012;10.030;2023-03-01T12:11:54;47.13;;;26.13;;
20093;SDS011;10206;48.012;10.030;2023-03-01T12:17:39;42.07;;;23.13;;
20093;SDS011;10206;48.012;10.030;2023-03-01T12:30:46;44.97;;;23.37;;
20093;SDS011;10206;48.012;10.030;2023-03-01T12:41:41;46.13;;;23.10;;
20093;SDS011;10206;48.012;10.030;2023-03-01T12:44:28;38.83;;;21.97;;
20093;SDS011;10206;48.012;10.030;2023-03-01T12:49:49;40.50;;;22.27;;
20093;SDS011;10206;48.012;10.030;2023-03-01T12:53:02;37.00;;;21.07;;
20093;SDS011;10206;48.012;10.030;2023-03-01T12:55:19;38.93;;;21.50;;
20093;SDS011;10206;48.012;10.030;2023-03-01T13:00:35;40.73;;;23.00;;
20093;SDS011;10206;48.012;10.030;2023-03-01T13:03:16;41.87;;;22.47;;
20093;SDS011;10206;48.012;10.030;2023-03-01T13:06:03;38.63;;;22.23;;
20093;SDS011;10206;48.012;10.030;2023-03-01T13:11:15;38.77;;;22.53;;
20093;SDS011;10206;48.012;10.030;2023-03-01T13:13:46;41.20;;;22.83;;
20093;SDS011;10206;48.012;10.030;2023-03-01T13:16:46;41.07;;;23.23;;
20093;SDS011;10206;48.012;10.030;2023-03-01T13:19:26;41.27;;;21.80;;
20093;SDS011;10206;48.012;10.030;2023-03-01T13:21:54;42.17;;;22.77;;
20093;SDS011;10206;48.012;10.030;2023-03-01T13:24:28;40.50;;;22.00;;
20093;SDS011;10206;48.012;10.030;2023-03-01T13:29:46;40.50;;;22.10;;
20093;SDS011;10206;48.012;10.030;2023-03-01T13:32:21;40.20;;;22.20;;
20093;SDS011;10206;48.012;10.030;2023-03-01T13:35:00;42.10;;;21.73;;
20093;SDS011;10206;48.012;10.030;2023-03-01T13:37:39;41.07;;;21.77;;
20093;SDS011;10206;48.012;10.030;2023-03-01T13:40:57;44.87;;;24.20;;
20093;SDS011;10206;48.012;10.030;2023-03-01T13:42:52;45.07;;;22.27;;
20093;SDS011;10206;48.012;10.030;2023-03-01T13:47:46;41.33;;;22.40;;
20093;SDS011;10206;48.012;10.030;2023-03-01T13:50:20;42.90;;;22.50;;
20093;SDS011;10206;48.012;10.030;2023-03-01T13:55:27;46.93;;;23.83;;
20093;SDS011;10206;48.012;10.030;2023-03-01T13:58:25;43.97;;;23.00;;
20093;SDS011;10206;48.012;10.030;2023-03-01T14:01:00;43.93;;;23.43;;
20093;SDS011;10206;48.012;10.030;2023-03-01T14:03:29;42.90;;;23.50;;
20093;SDS011;10206;48.012;10.030;2023-03-01T14:08:26;42.27;;;23.47;;
20093;SDS011;10206;48.012;10.030;2023-03-01T14:16:45;44.70;;;23.57;;
20093;SDS011;10206;48.012;10.030;2023-03-01T14:19:29;46.97;;;23.33;;
20093;SDS011;10206;48.012;10.030;2023-03-01T14:21:59;43.00;;;24.13;;
20093;SDS011;10206;48.012;10.030;2023-03-01T14:24:28;41.27;;;23.13;;
20093;SDS011;10206;48.012;10.030;2023-03-01T14:26:57;43.23;;;24.23;;
20093;SDS011;10206;48.012;10.030;2023-03-01T14:29:35;46.60;;;24.80;;
20093;SDS011;10206;48.012;10.030;2023-03-01T14:32:10;45.43;;;24.07;;
20093;SDS011;10206;48.012;10.030;2023-03-01T14:34:52;41.57;;;23.07;;
20093;SDS011;10206;48.012;10.030;2023-03-01T14:37:21;46.00;;;24.73;;
20093;SDS011;10206;48.012;10.030;2023-03-01T14:39:48;43.53;;;23.57;;
20093;SDS011;10206;48.012;10.030;2023-03-01T14:42:15;42.57;;;24.17;;
20093;SDS011;10206;48.012;10.030;2023-03-01T14:44:43;44.17;;;23.67;;
20093;SDS011;10206;48.012;10.030;2023-03-01T14:47:13;44.93;;;25.67;;
20093;SDS011;10206;48.012;10.030;2023-03-01T14:49:44;45.53;;;23.80;;
20093;SDS011;10206;48.012;10.030;2023-03-01T14:52:21;42.30;;;23.77;;
20093;SDS011;10206;48.012;10.030;2023-03-01T14:54:53;42.37;;;23.83;;
20093;SDS011;10206;48.012;10.030;2023-03-01T14:57:24;44.57;;;24.53;;
20093;SDS011;10206;48.012;10.030;2023-03-01T14:59:52;47.07;;;24.70;;
20093;SDS011;10206;48.012;10.030;2023-03-01T15:02:24;42.37;;;24.20;;
20093;SDS011;10206;48.012;10.030;2023-03-01T15:04:54;43.83;;;25.10;;
20093;SDS011;10206;48.012;10.030;2023-03-01T15:07:22;42.50;;;24.33;;
20093;SDS011;10206;48.012;10.030;2023-03-01T15:09:54;47.40;;;27.67;;
20093;SDS011;10206;48.012;10.030;2023-03-01T15:14:53;44.87;;;26.47;;
20093;SDS011;10206;48.012;10.030;2023-03-01T15:17:26;45.67;;;24.27;;
20093;SDS011;10206;48.012;10.030;2023-03-01T15:19:59;45.37;;;24.93;;
20093;SDS011;10206;48.012;10.030;2023-03-01T15:22:29;68.57;;;44.03;;
20093;SDS011;10206;48.012;10.030;2023-03-01T15:24:55;45.83;;;25.97;;
20093;SDS011;10206;48.012;10.030;2023-03-01T15:27:22;52.83;;;28.17;;
20093;SDS011;10206;48.012;10.030;2023-03-01T15:29:52;63.67;;;35.30;;
20093;SDS011;10206;48.012;10.030;2023-03-01T15:34:59;46.90;;;27.43;;
20093;SDS011;10206;48.012;10.030;2023-03-01T15:37:47;43.67;;;25.27;;
20093;SDS011;10206;48.012;10.030;2023-03-01T15:40:32;50.37;;;28.37;;
20093;SDS011;10206;48.012;10.030;2023-03-01T15:45:55;46.97;;;26.57;;
20093;SDS011;10206;48.012;10.030;2023-03-01T15:48:23;44.57;;;25.80;;
20093;SDS011;10206;48.012;10.030;2023-03-01T15:50:58;46.67;;;25.83;;
20093;SDS011;10206;48.012;10.030;2023-03-01T15:53:26;49.10;;;27.73;;
20093;SDS011;10206;48.012;10.030;2023-03-01T15:55:53;73.43;;;37.07;;
20093;SDS011;10206;48.012;10.030;2023-03-01T15:58:20;56.60;;;29.70;;
20093;SDS011;10206;48.012;10.030;2023-03-01T16:00:50;130.40;;;52.47;;
20093;SDS011;10206;48.012;10.030;2023-03-01T16:03:20;117.80;;;48.93;;
20093;SDS011;10206;48.012;10.030;2023-03-01T16:05:48;60.63;;;31.00;;
20093;SDS011;10206;48.012;10.030;2023-03-01T16:08:15;78.63;;;40.50;;
20093;SDS011;10206;48.012;10.030;2023-03-01T16:10:42;62.90;;;32.33;;
20093;SDS011;10206;48.012;10.030;2023-03-01T16:13:09;68.03;;;36.23;;
20093;SDS011;10206;48.012;10.030;2023-03-01T16:15:39;58.93;;;34.57;;
20093;SDS011;10206;48.012;10.030;2023-03-01T16:18:06;58.63;;;34.43;;
20093;SDS011;10206;48.012;10.030;2023-03-01T16:20:35;46.27;;;28.27;;
20093;SDS011;10206;48.012;10.030;2023-03-01T16:23:02;50.57;;;29.17;;
20093;SDS011;10206;48.012;10.030;2023-03-01T16:25:33;56.10;;;33.43;;
20093;SDS011;10206;48.012;10.030;2023-03-01T16:28:00;50.77;;;29.20;;